Time;durP1;ratioP1;P1;durP2;ratioP2;P2;SDS_P1;SDS_P2;PMS_P1;PMS_P2;Temp;Humidity;BMP_temperature;BMP_pressure;BME280_temperature;BME280_humidity;BME280_pressure;Samples;Min_cycle;Max_cycle;Signal;HPM_P1;HPM_P2
2023/01/23 00:01:25;;;;;;;16.00;4.85;;;2.60;99.90;;;;;;5141582;27;20053;-77
2023/01/23 00:03:52;;;;;;;13.40;5.00;;;2.40;99.90;;;;;;5151433;27;20071;-78
2023/01/23 00:06:18;;;;;;;11.88;4.80;;;2.40;99.90;;;;;;5123905;27;20151;-76
2023/01/23 00:08:45;;;;;;;14.07;5.63;;;2.40;99.90;;;;;;5137931;27;20074;-76
2023/01/23 00:11:16;;;;;;;12.85;5.35;;;2.40;99.90;;;;;;5102587;27;20047;-76
2023/01/23 00:13:41;;;;;;;12.00;5.18;;;2.40;99.90;;;;;;5149929;27;20039;-76
2023/01/23 00:16:11;;;;;;;13.63;5.75;;;2.40;99.90;;;;;;5151201;27;20376;-76
2023/01/23 00:18:37;;;;;;;10.63;4.75;;;2.40;99.90;;;;;;5131454;27;20118;-76
2023/01/23 00:21:08;;;;;;;13.27;5.65;;;2.80;99.90;;;;;;5113837;27;20127;-76
2023/01/23 00:23:34;;;;;;;10.60;5.00;;;2.40;99.90;;;;;;5137462;27;20034;-76
2023/01/23 00:26:05;;;;;;;10.48;4.80;;;2.50;99.90;;;;;;5152376;27;20415;-77
2023/01/23 00:28:30;;;;;;;13.70;5.07;;;2.40;99.90;;;;;;5151878;27;20050;-77
2023/01/23 00:31:07;;;;;;;16.70;6.40;;;2.50;99.90;;;;;;5147200;27;20042;-77
2023/01/23 00:33:33;;;;;;;12.80;5.68;;;2.40;99.90;;;;;;5117660;27;20411;-77
2023/01/23 00:35:59;;;;;;;16.75;5.22;;;2.40;99.90;;;;;;5140566;27;20056;-77
2023/01/23 00:38:25;;;;;;;;;;;2.60;99.90;;;;;;5152923;27;20102;-77
2023/01/23 00:40:53;;;;;;;14.38;4.97;;;2.40;99.90;;;;;;5133399;27;20010;-77
2023/01/23 00:43:20;;;;;;;14.40;5.03;;;2.40;99.90;;;;;;5132721;27;20103;-77
2023/01/23 00:45:46;;;;;;;14.07;4.80;;;3.00;99.90;;;;;;5140258;27;20141;-76
2023/01/23 00:48:11;;;;;;;14.65;4.70;;;2.40;99.90;;;;;;5139083;27;20159;-77
2023/01/23 00:50:37;;;;;;;13.88;5.63;;;2.40;99.90;;;;;;5134551;27;20130;-77
2023/01/23 00:53:03;;;;;;;12.80;5.85;;;2.60;99.90;;;;;;5152294;27;20107;-77
2023/01/23 00:55:28;;;;;;;10.07;4.93;;;2.40;99.90;;;;;;5152432;27;20055;-76
2023/01/23 00:57:54;;;;;;;12.30;5.20;;;2.50;99.90;;;;;;5152794;27;20111;-78
2023/01/23 01:00:20;;;;;;;13.18;5.22;;;2.50;99.90;;;;;;5147051;27;20047;-77
2023/01/23 01:02:45;;;;;;;11.40;5.40;;;2.50;99.90;;;;;;5143190;27;20049;-77
2023/01/23 01:05:11;;;;;;;11.45;4.75;;;2.60;99.90;;;;;;5152491;27;20047;-77
2023/01/23 01:07:37;;;;;;;13.68;5.30;;;2.60;99.90;;;;;;5152618;27;20364;-77
2023/01/23 01:10:03;;;;;;;18.80;5.68;;;2.60;99.90;;;;;;5133066;27;20047;-76
2023/01/23 01:12:28;;;;;;;;;;;2.60;99.90;;;;;;5153312;27;20065;-76
2023/01/23 01:14:54;;;;;;;13.63;5.40;;;2.60;99.90;;;;;;5150141;27;19927;-78
2023/01/23 01:17:20;;;;;;;14.60;5.32;;;2.60;99.90;;;;;;5134111;27;20038;-77
2023/01/23 01:19:45;;;;;;;11.43;5.53;;;2.50;99.90;;;;;;5150734;27;20042;-77
2023/01/23 01:22:11;;;;;;;13.00;5.28;;;2.50;99.90;;;;;;5131123;27;20039;-77
2023/01/23 01:24:39;;;;;;;12.50;4.93;;;2.50;99.90;;;;;;5113454;27;20082;-77
2023/01/23 01:27:05;;;;;;;17.45;6.28;;;2.60;99.90;;;;;;5130950;27;20539;-77
2023/01/23 01:29:32;;;;;;;13.02;5.80;;;2.50;99.90;;;;;;5113976;27;20074;-77
2023/01/23 01:31:57;;;;;;;16.08;5.75;;;2.50;99.90;;;;;;5130969;27;20434;-77
2023/01/23 01:34:23;;;;;;;13.15;5.20;;;2.50;99.90;;;;;;5141812;27;20049;-77
2023/01/23 01:36:50;;;;;;;15.30;5.40;;;2.90;99.90;;;;;;5133721;27;20384;-77
2023/01/23 01:39:16;;;;;;;17.02;4.88;;;3.00;99.90;;;;;;5146228;27;20286;-77
2023/01/23 01:41:42;;;;;;;15.00;5.55;;;2.50;99.90;;;;;;5142944;27;20452;-76
2023/01/23 01:44:17;;;;;;;17.75;5.80;;;2.50;99.90;;;;;;5144307;27;20118;-76
2023/01/23 01:46:44;;;;;;;18.27;5.20;;;2.50;99.90;;;;;;5113283;28;20055;-76
2023/01/23 01:49:21;;;;;;;17.38;5.38;;;2.50;99.90;;;;;;5131035;27;20108;-77
2023/01/23 01:51:50;;;;;;;11.85;5.45;;;2.50;99.90;;;;;;5137872;27;20046;-77
2023/01/23 01:54:39;;;;;;;14.27;4.80;;;2.60;99.90;;;;;;5151781;27;20138;-78
2023/01/23 01:57:25;;;;;;;13.73;4.82;;;2.50;99.90;;;;;;5135557;27;20039;-77
2023/01/23 02:00:03;;;;;;;16.30;5.10;;;2.50;99.90;;;;;;5113687;28;20508;-77
2023/01/23 02:02:37;;;;;;;16.23;5.65;;;2.50;99.90;;;;;;5150319;27;20510;-77
2023/01/23 02:05:10;;;;;;;12.00;5.07;;;2.90;99.90;;;;;;5151754;27;20050;-76
2023/01/23 02:07:53;;;;;;;13.25;5.45;;;2.50;99.90;;;;;;5151954;27;20136;-77
2023/01/23 02:10:21;;;;;;;14.13;4.97;;;2.50;99.90;;;;;;5128924;28;20084;-77
2023/01/23 02:12:48;;;;;;;14.25;5.78;;;2.50;99.90;;;;;;5131393;28;20096;-77
2023/01/23 02:15:15;;;;;;;12.75;5.35;;;2.50;99.90;;;;;;5149104;27;20043;-77
2023/01/23 02:17:42;;;;;;;14.88;5.78;;;2.50;99.90;;;;;;5155648;27;20522;-77
2023/01/23 02:20:27;;;;;;;13.27;5.90;;;2.50;99.90;;;;;;5155801;27;20051;-77
2023/01/23 02:22:56;;;;;;;12.77;5.28;;;2.50;99.90;;;;;;5155911;27;20143;-76
2023/01/23 02:25:31;;;;;;;11.63;4.82;;;2.50;99.90;;;;;;5136683;27;20063;-77
2023/01/23 02:27:57;;;;;;;16.95;5.63;;;2.50;99.90;;;;;;5134174;27;20070;-77
2023/01/23 02:30:23;;;;;;;19.08;5.70;;;2.50;99.90;;;;;;5116891;27;20073;-77
2023/01/23 02:32:48;;;;;;;19.27;6.30;;;2.50;99.90;;;;;;5134749;27;20546;-77
2023/01/23 02:35:20;;;;;;;11.85;5.03;;;2.50;99.90;;;;;;5142105;27;20047;-77
2023/01/23 02:37:47;;;;;;;12.75;5.43;;;2.50;99.90;;;;;;5155717;27;20155;-77
2023/01/23 02:40:14;;;;;;;13.70;5.30;;;2.70;99.90;;;;;;5136170;27;20094;-77
2023/01/23 02:42:43;;;;;;;17.20;6.05;;;2.50;99.90;;;;;;5155803;27;20057;-77
2023/01/23 02:45:09;;;;;;;15.90;5.93;;;2.60;99.90;;;;;;5155605;27;20047;-77
2023/01/23 02:47:35;;;;;;;12.38;5.32;;;2.50;99.90;;;;;;5155342;27;20042;-77
2023/01/23 02:50:01;;;;;;;21.88;6.35;;;2.90;99.90;;;;;;5131214;27;20507;-77
2023/01/23 02:52:26;;;;;;;24.20;6.07;;;2.60;99.90;;;;;;5134240;27;20086;-77
2023/01/23 02:54:52;;;;;;;19.38;5.53;;;2.70;99.90;;;;;;5140463;27;20065;-77
2023/01/23 02:57:18;;;;;;;15.20;5.90;;;2.60;99.90;;;;;;5136639;27;20118;-77
2023/01/23 03:02:28;;;;;;;13.23;5.35;;;2.60;99.90;;;;;;5134244;27;20062;-77
2023/01/23 03:04:54;;;;;;;15.30;5.97;;;2.70;99.90;;;;;;5116530;27;20047;-77
2023/01/23 03:07:19;;;;;;;13.98;6.28;;;2.70;99.90;;;;;;5133816;27;20051;-76
2023/01/23 03:09:46;;;;;;;12.75;5.47;;;2.70;99.90;;;;;;5133804;27;20051;-77
2023/01/23 03:12:14;;;;;;;14.75;5.50;;;2.60;99.90;;;;;;5133966;27;20055;-76
2023/01/23 03:14:39;;;;;;;15.80;5.53;;;2.60;99.90;;;;;;5141231;27;20373;-77
2023/01/23 03:17:06;;;;;;;17.55;5.60;;;2.60;99.90;;;;;;5154442;27;20095;-78
2023/01/23 03:19:32;;;;;;;15.43;6.20;;;2.60;99.90;;;;;;5136938;27;20050;-77
2023/01/23 03:21:58;;;;;;;13.13;5.35;;;2.90;99.90;;;;;;5146062;27;20039;-77
2023/01/23 03:24:24;;;;;;;15.82;6.07;;;2.60;99.90;;;;;;5133964;27;20142;-77
2023/01/23 03:26:50;;;;;;;15.13;6.55;;;2.60;99.90;;;;;;5114272;27;20149;-77
2023/01/23 03:32:07;;;;;;;12.55;5.07;;;2.60;99.90;;;;;;5154177;27;20109;-78
2023/01/23 03:34:34;;;;;;;14.30;5.18;;;2.50;99.90;;;;;;5152413;27;20050;-77
2023/01/23 03:37:00;;;;;;;;;;;2.50;99.90;;;;;;5152104;27;20050;-77
2023/01/23 03:42:10;;;;;;;22.27;6.50;;;2.50;99.90;;;;;;5133464;27;20116;-77
2023/01/23 03:44:36;;;;;;;15.50;5.95;;;2.50;99.90;;;;;;5145602;27;20075;-77
2023/01/23 03:47:02;;;;;;;20.30;6.60;;;2.60;99.90;;;;;;5135981;27;20043;-77
2023/01/23 03:49:28;;;;;;;17.58;5.45;;;3.10;99.90;;;;;;5154212;27;20058;-77
2023/01/23 03:51:53;;;;;;;13.88;5.40;;;2.60;99.90;;;;;;5153971;27;20047;-77
2023/01/23 03:54:19;;;;;;;12.25;5.68;;;2.60;99.90;;;;;;5143666;27;20055;-77
2023/01/23 03:56:45;;;;;;;25.08;6.20;;;2.70;99.90;;;;;;5143682;27;20407;-77
2023/01/23 03:59:11;;;;;;;12.77;5.47;;;2.50;99.90;;;;;;5116807;27;20055;-77
2023/01/23 04:01:37;;;;;;;16.65;6.05;;;2.60;99.90;;;;;;5115131;27;20055;-77
2023/01/23 04:04:03;;;;;;;;;;;2.60;99.90;;;;;;5134208;27;20066;-77
2023/01/23 04:06:29;;;;;;;14.73;5.85;;;2.60;99.90;;;;;;5132534;27;20112;-77
2023/01/23 04:08:56;;;;;;;;;;;2.50;99.90;;;;;;5143607;27;20042;-77
2023/01/23 04:11:23;;;;;;;17.75;5.40;;;2.60;99.90;;;;;;5134408;27;19918;-77
2023/01/23 04:13:49;;;;;;;17.23;6.50;;;2.50;99.90;;;;;;5135758;27;20042;-76
2023/01/23 04:16:15;;;;;;;11.20;5.45;;;2.50;99.90;;;;;;5153460;27;20099;-77
2023/01/23 04:18:40;;;;;;;12.18;5.00;;;2.50;99.90;;;;;;5153984;27;20042;-77
2023/01/23 04:21:06;;;;;;;16.67;6.22;;;2.50;99.90;;;;;;5151574;27;20039;-76
2023/01/23 04:23:32;;;;;;;14.93;5.65;;;2.50;99.90;;;;;;5142313;27;20046;-76
2023/01/23 04:25:58;;;;;;;16.98;6.32;;;2.50;99.90;;;;;;5132399;27;20089;-76
2023/01/23 04:28:23;;;;;;;15.35;5.65;;;2.90;99.90;;;;;;5133674;27;20484;-76
2023/01/23 04:30:50;;;;;;;17.63;6.18;;;2.50;99.90;;;;;;5153848;27;20049;-76
2023/01/23 04:33:16;;;;;;;17.80;5.93;;;2.50;99.90;;;;;;5152641;27;20549;-76
2023/01/23 04:36:09;;;;;;;15.13;5.90;;;2.50;99.90;;;;;;5153566;27;20043;-76
2023/01/23 04:38:35;;;;;;;13.98;5.97;;;2.50;99.90;;;;;;5148308;27;20111;-76
2023/01/23 04:41:01;;;;;;;16.23;6.38;;;2.50;99.90;;;;;;5150770;27;20495;-76
2023/01/23 04:43:27;;;;;;;;;;;2.50;99.90;;;;;;5152965;27;20047;-77
2023/01/23 04:45:53;;;;;;;14.60;6.25;;;2.50;99.90;;;;;;5135397;27;19972;-76
2023/01/23 04:48:19;;;;;;;14.32;6.18;;;2.50;99.90;;;;;;5152453;27;20058;-76
2023/01/23 04:50:45;;;;;;;14.98;5.90;;;2.50;99.90;;;;;;5150620;27;20039;-76
2023/01/23 04:53:10;;;;;;;16.73;6.07;;;2.50;99.90;;;;;;5132068;27;20395;-78
2023/01/23 04:55:36;;;;;;;13.80;6.07;;;2.50;99.90;;;;;;5130903;27;20050;-76
2023/01/23 04:58:02;;;;;;;24.05;7.60;;;2.50;99.90;;;;;;5132462;27;20050;-76
2023/01/23 05:00:28;;;;;;;14.82;6.20;;;2.80;99.90;;;;;;5114018;27;20051;-76
2023/01/23 05:02:54;;;;;;;13.50;5.57;;;2.50;99.90;;;;;;5132013;27;20133;-76
2023/01/23 05:05:20;;;;;;;13.85;5.80;;;2.50;99.90;;;;;;5131893;27;20047;-76
2023/01/23 05:07:47;;;;;;;14.13;5.78;;;2.50;99.90;;;;;;5132025;27;20096;-76
2023/01/23 05:10:14;;;;;;;18.35;6.57;;;2.80;99.90;;;;;;5143609;27;20043;-77
2023/01/23 05:12:40;;;;;;;14.02;5.35;;;2.50;99.90;;;;;;5152903;27;20050;-76
2023/01/23 05:15:07;;;;;;;12.98;5.50;;;2.50;99.90;;;;;;5134527;27;20402;-76
2023/01/23 05:17:32;;;;;;;17.13;6.20;;;2.50;99.90;;;;;;5152030;27;20551;-76
2023/01/23 05:19:58;;;;;;;19.42;6.15;;;2.80;99.90;;;;;;5134672;27;20830;-76
2023/01/23 05:22:23;;;;;;;17.25;6.78;;;2.50;99.90;;;;;;5116555;27;20106;-76
2023/01/23 05:24:49;;;;;;;19.48;6.80;;;2.50;99.90;;;;;;5151894;27;20080;-76
2023/01/23 05:27:15;;;;;;;14.25;5.78;;;2.50;99.90;;;;;;5152311;27;20074;-77
2023/01/23 05:29:41;;;;;;;14.48;5.05;;;2.50;99.90;;;;;;5132889;27;20514;-76
2023/01/23 05:32:06;;;;;;;15.23;6.22;;;2.50;99.90;;;;;;5152236;27;20073;-76
2023/01/23 05:34:32;;;;;;;15.02;6.68;;;2.50;99.90;;;;;;5138636;27;20549;-76
2023/01/23 05:36:58;;;;;;;12.75;5.70;;;2.50;99.90;;;;;;5131282;27;20101;-76
2023/01/23 05:39:24;;;;;;;14.07;6.15;;;2.40;99.90;;;;;;5131526;27;20039;-76
2023/01/23 05:41:49;;;;;;;14.68;5.15;;;2.40;99.90;;;;;;5130759;27;20094;-77
2023/01/23 05:44:15;;;;;;;15.60;6.15;;;2.40;99.90;;;;;;5113605;27;20480;-78
2023/01/23 05:46:41;;;;;;;13.95;6.32;;;2.40;99.90;;;;;;5131138;27;20043;-76
2023/01/23 05:49:07;;;;;;;15.73;6.50;;;2.40;99.90;;;;;;5131477;27;20496;-76
2023/01/23 05:51:32;;;;;;;15.30;5.80;;;2.70;99.90;;;;;;5130790;27;20035;-76
2023/01/23 05:54:00;;;;;;;20.13;5.90;;;2.80;99.90;;;;;;5141321;27;20122;-76
2023/01/23 05:56:26;;;;;;;14.23;5.30;;;2.50;99.90;;;;;;5132696;27;20054;-76
2023/01/23 05:58:51;;;;;;;;;;;2.50;99.90;;;;;;5144050;27;20103;-77
2023/01/23 06:01:18;;;;;;;18.02;5.95;;;2.50;99.90;;;;;;5132922;27;19919;-77
2023/01/23 06:03:44;;;;;;;;;;;2.50;99.90;;;;;;5152822;27;20089;-76
2023/01/23 06:06:09;;;;;;;14.00;5.70;;;2.50;99.90;;;;;;5135717;27;19989;-76
2023/01/23 06:08:35;;;;;;;12.50;5.75;;;2.50;99.90;;;;;;5130889;28;20111;-76
2023/01/23 06:11:01;;;;;;;14.07;5.78;;;2.50;99.90;;;;;;5130387;28;20076;-76
2023/01/23 06:13:26;;;;;;;18.35;7.45;;;3.00;99.90;;;;;;5112649;27;20054;-77
2023/01/23 06:15:52;;;;;;;12.80;5.72;;;2.40;99.90;;;;;;5149247;27;20126;-76
2023/01/23 06:18:19;;;;;;;14.38;6.82;;;2.50;99.90;;;;;;5130881;28;20100;-78
2023/01/23 06:20:44;;;;;;;13.50;6.10;;;2.50;99.90;;;;;;5136007;27;20054;-76
2023/01/23 06:23:10;;;;;;;13.38;5.45;;;2.50;99.90;;;;;;5151513;27;20665;-76
2023/01/23 06:25:36;;;;;;;17.05;5.90;;;2.50;99.90;;;;;;5127131;28;20130;-76
2023/01/23 06:28:02;;;;;;;;;;;2.40;99.90;;;;;;5143809;27;20070;-76
2023/01/23 06:30:28;;;;;;;12.85;5.78;;;2.50;99.90;;;;;;5132197;27;20456;-76
2023/01/23 06:32:53;;;;;;;15.43;5.80;;;2.90;99.90;;;;;;5130649;28;20050;-76
2023/01/23 06:35:19;;;;;;;14.68;6.05;;;2.40;99.90;;;;;;5130810;28;20508;-77
2023/01/23 06:37:45;;;;;;;16.58;6.38;;;2.40;99.90;;;;;;5112371;28;20177;-76
2023/01/23 06:40:14;;;;;;;16.45;6.40;;;2.40;99.90;;;;;;5145521;27;20513;-76
2023/01/23 06:42:41;;;;;;;16.02;6.78;;;2.50;99.90;;;;;;5151391;27;20061;-76
2023/01/23 06:45:08;;;;;;;12.20;5.53;;;2.50;99.90;;;;;;5136676;27;20112;-76
2023/01/23 06:47:34;;;;;;;15.82;5.90;;;2.50;99.90;;;;;;5131789;27;20450;-76
2023/01/23 06:50:01;;;;;;;14.60;6.68;;;2.50;99.90;;;;;;5151775;27;20066;-76
2023/01/23 06:52:27;;;;;;;14.05;5.95;;;2.50;99.90;;;;;;5150980;27;20071;-76
2023/01/23 06:54:53;;;;;;;12.07;5.70;;;2.50;99.90;;;;;;5150822;27;20058;-76
2023/01/23 06:57:19;;;;;;;15.15;6.63;;;2.40;99.90;;;;;;5133151;27;20043;-76
2023/01/23 06:59:45;;;;;;;13.77;6.15;;;2.40;99.90;;;;;;5101326;28;20086;-77
2023/01/23 07:02:11;;;;;;;13.13;5.75;;;2.50;99.90;;;;;;5114631;27;20082;-76
2023/01/23 07:04:37;;;;;;;16.38;6.72;;;2.50;99.90;;;;;;5147383;27;20083;-76
2023/01/23 07:07:03;;;;;;;13.63;5.45;;;2.50;99.90;;;;;;5136410;27;20074;-76
2023/01/23 07:09:29;;;;;;;14.77;6.05;;;2.50;99.90;;;;;;5122209;27;20050;-76
2023/01/23 07:11:54;;;;;;;14.70;5.95;;;2.50;99.90;;;;;;5115220;27;20043;-76
2023/01/23 07:14:20;;;;;;;13.18;6.55;;;2.50;99.90;;;;;;5154030;27;20130;-76
2023/01/23 07:16:46;;;;;;;12.27;6.30;;;2.50;99.90;;;;;;5154330;27;20039;-76
2023/01/23 07:19:11;;;;;;;15.10;6.38;;;2.60;99.90;;;;;;5137039;27;20099;-76
2023/01/23 07:21:37;;;;;;;14.48;6.63;;;2.50;99.90;;;;;;5146317;27;20541;-76
2023/01/23 07:24:03;;;;;;;16.85;5.82;;;2.50;99.90;;;;;;5151840;27;20047;-76
2023/01/23 07:26:29;;;;;;;15.35;5.45;;;2.50;99.90;;;;;;5132889;27;20549;-76
2023/01/23 07:28:55;;;;;;;19.13;6.47;;;2.50;99.90;;;;;;5134242;27;20050;-76
2023/01/23 07:31:21;;;;;;;14.80;6.50;;;2.50;99.90;;;;;;5133510;27;20681;-76
2023/01/23 07:33:46;;;;;;;12.88;5.85;;;2.50;99.90;;;;;;5146188;27;20126;-67
2023/01/23 07:36:17;;;;;;;12.50;5.60;;;2.80;99.90;;;;;;5135055;27;20438;-68
2023/01/23 07:38:42;;;;;;;15.48;6.15;;;2.60;99.90;;;;;;5133651;27;20047;-70
2023/01/23 07:41:08;;;;;;;17.17;6.43;;;2.70;99.90;;;;;;5133128;27;20072;-77
2023/01/23 07:43:34;;;;;;;13.38;5.70;;;2.60;99.90;;;;;;5133396;27;20047;-76
2023/01/23 07:46:00;;;;;;;11.15;5.78;;;2.60;99.90;;;;;;5133741;27;20051;-76
2023/01/23 07:48:26;;;;;;;;;;;2.60;99.90;;;;;;5136347;27;20054;-79
2023/01/23 07:50:52;;;;;;;14.95;5.65;;;2.70;99.90;;;;;;5140004;27;20457;-76
2023/01/23 07:53:18;;;;;;;15.25;5.75;;;2.60;99.90;;;;;;5135287;27;20134;-76
2023/01/23 07:55:44;;;;;;;16.80;6.57;;;2.60;99.90;;;;;;5152595;27;20115;-76
2023/01/23 07:58:10;;;;;;;14.57;7.35;;;2.60;99.90;;;;;;5154377;27;20054;-76
2023/01/23 08:00:35;;;;;;;14.32;5.82;;;2.60;99.90;;;;;;5154005;27;20818;-76
2023/01/23 08:03:01;;;;;;;13.13;5.97;;;2.60;99.90;;;;;;5153996;27;20050;-76
2023/01/23 08:05:27;;;;;;;15.10;5.07;;;2.60;99.90;;;;;;5135454;27;20167;-77
2023/01/23 08:07:52;;;;;;;14.75;5.95;;;2.60;99.90;;;;;;5149722;27;20487;-76
2023/01/23 08:10:18;;;;;;;14.18;5.90;;;3.00;99.90;;;;;;5138677;27;20039;-76
2023/01/23 08:12:44;;;;;;;15.77;6.55;;;2.60;99.90;;;;;;5132872;27;20050;-76
2023/01/23 08:15:10;;;;;;;16.42;6.18;;;2.60;99.90;;;;;;5133566;27;20487;-76
2023/01/23 08:17:36;;;;;;;14.45;6.18;;;2.70;99.90;;;;;;5132432;27;20043;-76
2023/01/23 08:20:02;;;;;;;15.52;6.72;;;2.70;99.90;;;;;;5115167;27;20126;-76
2023/01/23 08:22:28;;;;;;;14.55;5.93;;;2.70;99.90;;;;;;5132540;27;20506;-77
2023/01/23 08:24:54;;;;;;;11.93;5.35;;;2.70;99.90;;;;;;5120125;27;20146;-76
2023/01/23 08:27:20;;;;;;;17.95;5.95;;;2.70;99.90;;;;;;5153004;27;20050;-77
2023/01/23 08:29:45;;;;;;;13.70;5.82;;;2.70;99.90;;;;;;5127909;27;20039;-76
2023/01/23 08:32:11;;;;;;;15.43;6.05;;;2.70;99.90;;;;;;5132616;27;20047;-76
2023/01/23 08:34:37;;;;;;;14.30;5.95;;;2.70;99.90;;;;;;5132363;27;20532;-75
2023/01/23 08:37:02;;;;;;;12.48;5.68;;;2.60;99.90;;;;;;5132288;27;20047;-77
2023/01/23 08:39:28;;;;;;;15.73;5.88;;;2.70;99.90;;;;;;5132990;27;20097;-76
2023/01/23 08:41:54;;;;;;;13.18;6.50;;;2.70;99.90;;;;;;5131380;27;20047;-74
2023/01/23 08:44:19;;;;;;;12.40;5.78;;;2.70;99.90;;;;;;5133070;27;20039;-74
2023/01/23 08:46:45;;;;;;;14.80;5.32;;;2.80;99.90;;;;;;5131921;27;20054;-77
2023/01/23 08:49:12;;;;;;;12.68;5.95;;;2.80;99.90;;;;;;5149615;27;20122;-77
2023/01/23 08:51:38;;;;;;;16.50;5.80;;;2.80;99.90;;;;;;5152424;27;20125;-77
2023/01/23 08:54:04;;;;;;;13.00;5.07;;;3.10;99.90;;;;;;5143762;27;20118;-76
2023/01/23 08:56:30;;;;;;;14.52;5.63;;;2.90;99.90;;;;;;5131527;27;20142;-80
2023/01/23 08:58:56;;;;;;;14.52;5.65;;;2.90;99.90;;;;;;5139319;27;20122;-70
2023/01/23 09:01:25;;;;;;;11.20;5.72;;;3.20;99.90;;;;;;5145464;27;20760;-71
2023/01/23 09:03:51;;;;;;;18.05;5.97;;;3.20;99.90;;;;;;5132011;27;20039;-71
2023/01/23 09:06:19;;;;;;;15.73;5.72;;;3.00;99.90;;;;;;5131791;27;20047;-74
2023/01/23 09:08:46;;;;;;;13.85;5.90;;;3.00;99.90;;;;;;5149690;27;20127;-73
2023/01/23 09:11:12;;;;;;;14.93;5.70;;;3.00;99.90;;;;;;5152111;27;20038;-71
2023/01/23 09:13:38;;;;;;;13.27;5.32;;;3.00;99.90;;;;;;5151451;27;20038;-69
2023/01/23 09:16:07;;;;;;;12.20;5.55;;;2.90;99.90;;;;;;5151790;27;20161;-70
2023/01/23 09:18:32;;;;;;;15.90;5.60;;;3.00;99.90;;;;;;5152471;27;20046;-76
2023/01/23 09:20:58;;;;;;;12.55;5.53;;;3.00;99.90;;;;;;5133586;27;20114;-72
2023/01/23 09:23:24;;;;;;;13.20;5.68;;;3.00;99.90;;;;;;5142162;27;20039;-71
2023/01/23 09:25:50;;;;;;;12.35;5.30;;;3.10;99.90;;;;;;5160857;27;20482;-72
2023/01/23 09:28:16;;;;;;;13.75;5.30;;;3.10;99.90;;;;;;5172028;27;20041;-71
2023/01/23 09:30:41;;;;;;;11.73;4.95;;;3.60;99.90;;;;;;5171240;27;20041;-72
2023/01/23 09:33:07;;;;;;;16.17;5.95;;;3.10;99.90;;;;;;5166510;27;20042;-71
2023/01/23 09:35:33;;;;;;;10.20;4.85;;;3.10;99.90;;;;;;5170772;27;20125;-73
2023/01/23 09:37:59;;;;;;;13.80;5.20;;;3.10;99.90;;;;;;5170707;27;20052;-71
2023/01/23 09:40:29;;;;;;;10.73;5.03;;;3.50;99.90;;;;;;5157449;27;20046;-71
2023/01/23 09:43:00;;;;;;;14.50;6.88;;;3.20;99.90;;;;;;5142621;27;20501;-71
2023/01/23 09:45:27;;;;;;;14.45;5.55;;;3.20;99.90;;;;;;5152798;27;20083;-71
2023/01/23 09:48:40;;;;;;;11.35;4.90;;;3.20;99.90;;;;;;5170059;27;20042;-71
2023/01/23 09:51:14;;;;;;;11.80;5.07;;;3.30;99.90;;;;;;5085488;28;20080;-72
2023/01/23 09:53:41;;;;;;;15.52;5.35;;;3.30;99.90;;;;;;5152340;27;20054;-71
2023/01/23 09:56:40;;;;;;;13.63;5.68;;;3.30;99.90;;;;;;5166668;27;20514;-70
2023/01/23 09:59:36;;;;;;;11.23;5.13;;;3.40;99.90;;;;;;5152110;27;20087;-70
2023/01/23 10:02:13;;;;;;;13.00;4.97;;;3.40;99.90;;;;;;5134464;27;20059;-75
2023/01/23 10:04:39;;;;;;;12.35;5.13;;;3.40;99.90;;;;;;5159977;27;20042;-76
2023/01/23 10:07:14;;;;;;;10.98;4.82;;;3.60;99.90;;;;;;5159356;27;20043;-72
2023/01/23 10:10:07;;;;;;;10.30;4.50;;;3.40;99.90;;;;;;5159704;27;20047;-76
2023/01/23 10:13:06;;;;;;;13.10;4.85;;;3.40;99.90;;;;;;5151134;27;20105;-71
2023/01/23 10:15:32;;;;;;;16.92;5.10;;;3.40;99.90;;;;;;5147021;27;20042;-75
2023/01/23 10:18:20;;;;;;;13.57;4.72;;;3.40;99.90;;;;;;5150754;27;20039;-71
2023/01/23 10:20:58;;;;;;;14.45;5.32;;;3.40;99.90;;;;;;5151600;27;20047;-71
2023/01/23 10:23:40;;;;;;;10.43;5.03;;;3.40;99.90;;;;;;5150155;27;20046;-71
2023/01/23 10:26:13;;;;;;;9.93;4.95;;;3.40;99.90;;;;;;5143542;27;20068;-72
2023/01/23 10:28:42;;;;;;;14.75;5.80;;;3.50;99.90;;;;;;5112478;28;20066;-79
2023/01/23 10:31:23;;;;;;;9.68;5.20;;;3.50;99.90;;;;;;5133611;27;20524;-71
2023/01/23 10:34:01;;;;;;;12.70;5.47;;;3.50;99.90;;;;;;5128377;27;20571;-72
2023/01/23 10:36:37;;;;;;;14.65;5.72;;;3.50;99.90;;;;;;5143241;27;20043;-72
2023/01/23 10:39:11;;;;;;;11.55;5.22;;;3.60;99.90;;;;;;5141187;27;20125;-73
2023/01/23 10:41:38;;;;;;;14.80;5.47;;;3.60;99.90;;;;;;5153516;27;20042;-71
2023/01/23 10:44:16;;;;;;;;;;;3.70;99.90;;;;;;5155341;27;20039;-71
2023/01/23 10:46:51;;;;;;;11.43;4.93;;;3.70;99.90;;;;;;5142241;27;19926;-77
2023/01/23 10:49:27;;;;;;;16.88;5.63;;;3.80;99.90;;;;;;5151909;27;20533;-72
2023/01/23 10:51:52;;;;;;;10.27;4.78;;;3.80;99.90;;;;;;5153235;27;20443;-72
2023/01/23 10:54:25;;;;;;;11.85;4.88;;;3.80;99.90;;;;;;5136955;27;20062;-72
2023/01/23 10:57:22;;;;;;;13.77;5.85;;;3.80;99.90;;;;;;5153941;27;20142;-71
2023/01/23 11:00:06;;;;;;;10.55;4.90;;;4.20;99.90;;;;;;5152809;27;20035;-72
2023/01/23 11:02:34;;;;;;;11.52;5.18;;;3.90;99.90;;;;;;5148882;27;20119;-75
2023/01/23 11:05:01;;;;;;;11.75;5.85;;;3.90;99.90;;;;;;5152828;27;20167;-72
2023/01/23 11:07:30;;;;;;;11.52;5.05;;;4.00;99.90;;;;;;5151939;27;20118;-73
2023/01/23 11:10:03;;;;;;;11.23;5.20;;;4.10;99.90;;;;;;5151295;27;20051;-71
2023/01/23 11:12:30;;;;;;;12.55;5.15;;;4.10;99.90;;;;;;5168895;27;20039;-72
2023/01/23 11:15:18;;;;;;;10.98;4.85;;;4.20;99.90;;;;;;5172909;27;20098;-73
2023/01/23 11:17:44;;;;;;;11.48;4.90;;;4.30;99.90;;;;;;5163013;27;20099;-77
2023/01/23 11:20:32;;;;;;;13.43;5.55;;;4.40;99.90;;;;;;5151404;27;20047;-72
2023/01/23 11:23:03;;;;;;;14.15;5.32;;;4.40;99.90;;;;;;5151628;27;20046;-72
2023/01/23 11:25:38;;;;;;;10.48;5.20;;;4.40;99.90;;;;;;5166301;27;20487;-71
2023/01/23 11:28:26;;;;;;;9.93;5.03;;;4.50;99.90;;;;;;5161213;27;20049;-74
2023/01/23 11:31:00;;;;;;;11.70;4.85;;;4.40;99.90;;;;;;5151344;27;20095;-74
2023/01/23 11:33:51;;;;;;;12.23;5.18;;;4.50;99.90;;;;;;5146571;27;20476;-71
2023/01/23 11:36:17;;;;;;;14.27;5.32;;;4.40;99.90;;;;;;5154988;27;20039;-71
2023/01/23 11:39:15;;;;;;;12.40;4.80;;;4.40;99.90;;;;;;5153307;27;20042;-71
2023/01/23 11:41:43;;;;;;;12.25;5.15;;;4.30;99.90;;;;;;5153079;27;20057;-71
2023/01/23 11:44:19;;;;;;;11.80;4.95;;;4.30;99.90;;;;;;5152851;27;20046;-71
2023/01/23 11:47:05;;;;;;;18.02;5.72;;;4.40;99.90;;;;;;5153302;27;20066;-76
2023/01/23 11:50:02;;;;;;;13.43;4.72;;;4.30;99.90;;;;;;5157377;27;20048;-70
2023/01/23 11:52:33;;;;;;;13.00;5.32;;;4.30;99.90;;;;;;5167894;27;20158;-71
2023/01/23 11:55:24;;;;;;;15.40;5.80;;;4.20;99.90;;;;;;5162124;27;20055;-70
2023/01/23 11:58:37;;;;;;;13.30;5.07;;;4.30;99.90;;;;;;5158072;27;20062;-71
2023/01/23 12:01:14;;;;;;;14.63;5.07;;;4.30;99.90;;;;;;5114306;27;20049;-70
2023/01/23 12:04:05;;;;;;;;;;;4.30;99.90;;;;;;5171367;27;20042;-72
2023/01/23 12:06:50;;;;;;;11.13;5.00;;;4.30;99.90;;;;;;5131024;27;19925;-70
2023/01/23 12:09:17;;;;;;;10.57;4.90;;;4.30;99.90;;;;;;5153584;27;20043;-70
2023/01/23 12:11:58;;;;;;;13.60;5.20;;;4.30;99.90;;;;;;5154412;27;20053;-70
2023/01/23 12:14:38;;;;;;;12.20;5.32;;;4.40;99.90;;;;;;5151917;27;20129;-70
2023/01/23 12:17:26;;;;;;;14.63;5.47;;;4.50;99.90;;;;;;5166689;27;20034;-70
2023/01/23 12:20:09;;;;;;;17.98;5.28;;;4.50;99.90;;;;;;5170774;27;20042;-70
2023/01/23 12:22:56;;;;;;;12.23;5.22;;;4.50;99.90;;;;;;5154716;27;20043;-70
2023/01/23 12:25:39;;;;;;;12.48;4.95;;;4.60;99.90;;;;;;5141878;27;20046;-71
2023/01/23 12:28:17;;;;;;;12.40;5.03;;;4.60;99.90;;;;;;5156594;27;20086;-70
2023/01/23 12:30:49;;;;;;;9.98;5.13;;;4.60;99.90;;;;;;5174784;27;20101;-69
2023/01/23 12:33:38;;;;;;;11.20;5.40;;;4.60;99.90;;;;;;5152794;27;20050;-69
2023/01/23 12:36:24;;;;;;;11.57;5.10;;;4.60;99.90;;;;;;5151879;27;20091;-70
2023/01/23 12:38:49;;;;;;;10.93;5.05;;;4.70;99.90;;;;;;5152264;27;20491;-75
2023/01/23 12:41:39;;;;;;;10.40;5.03;;;4.70;99.90;;;;;;5145791;27;20078;-70
2023/01/23 12:44:36;;;;;;;11.32;5.43;;;4.70;99.90;;;;;;5134646;27;20065;-70
2023/01/23 12:47:09;;;;;;;12.35;5.18;;;4.70;99.90;;;;;;5151876;27;20138;-71
2023/01/23 12:49:38;;;;;;;14.48;5.22;;;4.70;99.90;;;;;;5153141;27;20428;-70
2023/01/23 12:52:19;;;;;;;11.27;4.70;;;4.70;99.90;;;;;;5153319;27;20043;-70
2023/01/23 12:54:52;;;;;;;15.25;6.63;;;4.70;99.90;;;;;;5173909;27;20054;-69
2023/01/23 12:57:38;;;;;;;12.82;4.80;;;4.70;99.90;;;;;;5154122;27;20050;-72
2023/01/23 13:00:29;;;;;;;9.90;4.30;;;4.80;99.90;;;;;;5150163;27;20098;-70
2023/01/23 13:03:13;;;;;;;12.27;4.93;;;4.70;99.90;;;;;;5132788;27;20208;-70
2023/01/23 13:05:57;;;;;;;11.88;4.63;;;4.70;99.90;;;;;;5153116;27;20058;-70
2023/01/23 13:08:42;;;;;;;11.95;5.18;;;4.70;99.90;;;;;;5148756;27;20042;-69
2023/01/23 13:11:41;;;;;;;12.48;5.50;;;4.70;99.90;;;;;;5151537;27;20046;-70
2023/01/23 13:14:30;;;;;;;12.25;5.07;;;4.70;99.90;;;;;;5151943;27;20035;-71